ZSSS/SHA METAR and TAF weather

Enter ICAO airport designator
Station Type Date Time Source
ZSSS METAR 2021/10/20 07:00 UTC NOAA

ZSSS 200700Z 01003MPS 9999 -RA FEW016 13/12 Q1022 NOSIG


Station Type Date Time Source
ZSSS Decoded METAR 2021/10/20 07:00 UTC NOAA

Shanghai / Hongqiao, China (ZSSS) 31-10N 121-26E 3M
Oct 20, 2021 - 03:00 AM EDT / 2021.10.20 0700 UTC
Wind: from the N (010 degrees) at 7 MPH (6 KT):0
Visibility: greater than 7 mile(s):0
Sky conditions: mostly clear
Weather: light rain
Temperature: 55 F (13 C)
Dew Point: 53 F (12 C)
Relative Humidity: 93%
Pressure (altimeter): 30.18 in. Hg (1022 hPa)
ob: ZSSS 200700Z 01003MPS 9999 -RA FEW016 13/12 Q1022 NOSIG
cycle: 7

Station Type Date Time Source
ZSSS TAF 2021/10/20 06:03 UTC NOAA

TAF ZSSS 200305Z 2006/2106 35004MPS 6000 -RA BKN015 TX17/2006Z TN13/2021Z
TEMPO 2006/2012 SHRA BKN008

Example: see airport list